Aeroboteco Virtual Airlines! Uma nuvem a frente.



 INFORMAÇÕES METEOROLÓGICAS
METAR FOR GCXO
ADDS - METARS form results

(0942 UTC 24 June 2019)
Data provider http://aviationweather.gov/metar/data/
 
METAR text: GCXO 240930Z 12007KT 080V170 9999 FEW005 21/16 Q1019 NOSIG
Conditions at: GCXO (TENERIFE/LOS ROD, ES) observed 0930 UTC 24 June 2019
Temperature: 21.0°C (70°F)
Dewpoint: 16.0°C (61°F) [RH = 73%]
Pressure (altimeter): 30.09 inches Hg (1019.0 mb)
Winds: from the ESE (120 degrees) at 8 MPH (7 knots; 3.6 m/s)
Visibility: 6 or more miles (10+ km)
Ceiling: at least 12,000 feet AGL
Clouds: few clouds at 500 feet AGL
Weather: no significant weather observed at this time

METAR text: GCXO 240900Z 09004KT 030V120 9999 FEW005 21/16 Q1019 NOSIG
Conditions at: GCXO (TENERIFE/LOS ROD, ES) observed 0900 UTC 24 June 2019
Temperature: 21.0°C (70°F)
Dewpoint: 16.0°C (61°F) [RH = 73%]
Pressure (altimeter): 30.09 inches Hg (1019.0 mb)
Winds: from the E (90 degrees) at 5 MPH (4 knots; 2.1 m/s)
Visibility: 6 or more miles (10+ km)
Ceiling: at least 12,000 feet AGL
Clouds: few clouds at 500 feet AGL
Weather: no significant weather observed at this time

Forecast for: GCXO (TENERIFE/LOS ROD, ES)
Text: TAF GCXO 240800Z 2409/2509 29009KT 9999 FEW015 TX24/2414Z TN16/2506Z
Forecast period: 0900 UTC 24 June 2019 to 0900 UTC 25 June 2019
Forecast type: FROM: standard forecast or significant change
Winds: from the WNW (290 degrees) at 10 MPH (9 knots; 4.6 m/s)
Visibility: 6 or more miles 10+ km)
Ceiling: at least 12,000 feet AGL
Clouds: few clouds at 1500 feet AGL
Weather: no significant weather forecast for this period
Text: PROB40 2411/2417 14010KT
Forecast period: 1100 to 1700 UTC 24 June 2019
Forecast type: PROBABLE: 40 percent likelihood of the following during this time
Winds: from the SE (140 degrees) at 12 MPH (10 knots; 5.1 m/s)
Visibility: missing
Ceiling: unknown
Clouds: missing
Weather: no significant weather forecast for this period
Text: PROB40
Forecast period: 0200 to 0900 UTC 25 June 2019
Forecast type: TEMPORARY: The following changes expected for less than half the time period
Visibility: missing
Ceiling: 600 feet AGL
Clouds: broken clouds at 600 feet AGL
Weather: no significant weather forecast for this period

 MAPA DO AEROPORTO

 INFORMAÇÕES DA PISTA
Pista 12 Tamanho da pista 11155 ft Largura da pista 148 ft
Elevação da pista 2060 ft Ranhura da pista 0 ft Proa da pista 111
Pista 30 Tamanho da pista 11155 ft Largura da pista 148 ft
Elevação da pista 2002 ft Ranhura da pista 0 ft Proa da pista 291

 FREQUÊNCIAS DO AEROPORTO
Tipo APP Nome APP Frequência 119.7 MHZ
Tipo ATIS Nome ATIS Frequência 118.575 MHZ
Tipo GND Nome GND Frequência 121.7 MHZ
Tipo TWR Nome TWR Frequência 118.7 MHZ

 AUXÍLIOS DE NAVEGAÇÃO PRÓXIMOS AO AEROPORTO
Tipo VOR-DME Nome Tenerife Norte Frequência 117700 KHZ
Tipo NDB Nome Tenerife Norte Frequência 410 KHZ